createdAt,value
2022-11-22T00:00:29.644Z,89.95
2022-11-22T00:02:57.087Z,89.86
2022-11-22T00:05:25.860Z,89.92
2022-11-22T00:07:53.183Z,89.90
2022-11-22T00:10:20.949Z,89.82
2022-11-22T00:12:48.590Z,90.02
2022-11-22T00:15:16.133Z,89.58
2022-11-22T00:17:43.795Z,90.10
2022-11-22T00:20:12.172Z,89.60
2022-11-22T00:22:44.440Z,89.90
2022-11-22T00:25:12.671Z,89.87
2022-11-22T00:27:40.857Z,89.83
2022-11-22T00:30:08.952Z,90.13
2022-11-22T00:32:36.592Z,89.74
2022-11-22T00:35:04.411Z,89.89
2022-11-22T00:37:31.927Z,89.85
2022-11-22T00:40:00.731Z,90.10
2022-11-22T00:42:28.050Z,89.86
2022-11-22T00:44:55.359Z,89.85
2022-11-22T00:47:22.638Z,89.93
2022-11-22T00:49:49.993Z,89.83
2022-11-22T00:52:17.517Z,89.47
2022-11-22T00:54:50.119Z,89.92
2022-11-22T00:57:21.929Z,89.80
2022-11-22T00:59:49.300Z,89.84
2022-11-22T01:02:16.789Z,89.79
2022-11-22T01:04:44.147Z,90.00
2022-11-22T01:07:11.853Z,89.68
2022-11-22T01:09:39.457Z,89.76
2022-11-22T01:12:07.091Z,89.89
2022-11-22T01:14:35.913Z,89.72
2022-11-22T01:17:03.443Z,89.85
2022-11-22T01:19:31.370Z,89.81
2022-11-22T01:21:58.967Z,89.86
2022-11-22T01:24:27.667Z,90.00
2022-11-22T01:26:55.612Z,89.71
2022-11-22T01:29:22.834Z,89.74
2022-11-22T01:31:51.624Z,89.70
2022-11-22T01:34:18.975Z,89.92
2022-11-22T01:36:46.204Z,90.10
2022-11-22T01:39:13.406Z,89.83
2022-11-22T01:41:40.815Z,90.02
2022-11-22T01:44:22.332Z,90.05
2022-11-22T01:46:55.668Z,89.81
2022-11-22T01:49:29.019Z,89.67
2022-11-22T01:52:02.543Z,89.98
2022-11-22T01:54:34.336Z,89.83
2022-11-22T01:57:06.747Z,89.56
2022-11-22T01:59:39.145Z,89.87
2022-11-22T02:02:07.954Z,89.91
2022-11-22T02:04:37.755Z,90.21
2022-11-22T02:07:14.367Z,90.05
2022-11-22T02:09:42.607Z,90.17
2022-11-22T02:12:12.378Z,90.51
2022-11-22T02:14:41.602Z,90.13
2022-11-22T02:17:10.496Z,90.43
2022-11-22T02:19:42.878Z,90.59
2022-11-22T02:22:30.334Z,90.07
2022-11-22T02:25:03.712Z,90.36
2022-11-22T02:27:32.546Z,90.15
2022-11-22T02:29:59.866Z,90.37
2022-11-22T02:32:27.382Z,90.00
2022-11-22T02:34:54.853Z,90.29
2022-11-22T02:37:25.568Z,89.86
2022-11-22T02:39:57.371Z,90.21
2022-11-22T02:42:25.640Z,90.11
2022-11-22T02:44:54.246Z,90.06
2022-11-22T02:47:21.566Z,89.91
2022-11-22T02:49:48.764Z,90.19
2022-11-22T02:52:17.201Z,90.55
2022-11-22T02:54:44.759Z,89.99
2022-11-22T02:57:12.689Z,90.04
2022-11-22T02:59:39.900Z,89.89
2022-11-22T03:02:08.527Z,90.26
2022-11-22T03:04:35.903Z,89.82
2022-11-22T03:07:04.562Z,90.34
2022-11-22T03:09:32.688Z,90.19
2022-11-22T03:12:00.239Z,90.60
2022-11-22T03:14:27.514Z,90.57
2022-11-22T03:16:54.873Z,90.41
2022-11-22T03:19:23.498Z,90.50
2022-11-22T03:21:50.771Z,90.38
2022-11-22T03:24:20.366Z,90.30
2022-11-22T03:26:48.867Z,90.36
2022-11-22T03:29:16.570Z,90.60
2022-11-22T03:31:43.881Z,90.60
2022-11-22T03:34:11.967Z,90.35
2022-11-22T03:36:40.812Z,90.71
2022-11-22T03:39:08.583Z,90.60
2022-11-22T03:41:35.930Z,90.73
2022-11-22T03:44:04.055Z,91.02
2022-11-22T03:46:31.349Z,91.00
2022-11-22T03:48:58.622Z,90.81
2022-11-22T03:51:26.707Z,90.80
2022-11-22T03:53:55.442Z,91.09
2022-11-22T03:56:23.116Z,91.59
2022-11-22T03:58:50.492Z,91.15
2022-11-22T04:01:18.255Z,91.13
2022-11-22T04:03:45.492Z,91.30
2022-11-22T04:06:12.709Z,91.50
2022-11-22T04:08:40.684Z,91.55
2022-11-22T04:11:09.523Z,91.31
2022-11-22T04:13:55.494Z,91.13
2022-11-22T04:16:22.752Z,91.72
2022-11-22T04:18:50.052Z,91.70
2022-11-22T04:21:35.711Z,91.69
2022-11-22T04:24:23.198Z,91.63
2022-11-22T04:26:52.636Z,91.98
2022-11-22T04:29:20.721Z,91.77
2022-11-22T04:32:07.658Z,92.10
2022-11-22T04:34:35.594Z,92.08
2022-11-22T04:37:04.076Z,92.20
2022-11-22T04:39:31.846Z,92.25
2022-11-22T04:42:19.646Z,92.86
2022-11-22T04:44:46.944Z,92.40
2022-11-22T04:47:38.231Z,93.24
2022-11-22T04:50:26.323Z,93.02
2022-11-22T04:52:54.559Z,93.18
2022-11-22T04:55:21.965Z,92.59
2022-11-22T04:57:55.947Z,93.20
2022-11-22T05:00:27.683Z,93.55
2022-11-22T05:02:54.864Z,92.99
2022-11-22T05:05:22.634Z,93.00
2022-11-22T05:07:50.061Z,93.58
2022-11-22T05:10:22.754Z,93.95
2022-11-22T05:12:56.098Z,93.82
2022-11-22T05:15:23.571Z,93.37
2022-11-22T05:17:50.745Z,94.14
2022-11-22T05:20:18.266Z,93.79
2022-11-22T05:23:04.337Z,93.05
2022-11-22T05:25:31.546Z,93.72
2022-11-22T05:28:00.121Z,93.27
2022-11-22T05:30:27.300Z,93.52
2022-11-22T05:32:55.227Z,93.87
2022-11-22T05:35:22.456Z,93.99
2022-11-22T05:37:49.754Z,93.87
2022-11-22T05:40:17.178Z,94.20
2022-11-22T05:42:44.549Z,93.51
2022-11-22T05:45:13.208Z,93.67
2022-11-22T05:47:40.567Z,93.64
2022-11-22T05:50:08.627Z,93.74
2022-11-22T05:52:35.918Z,93.88
2022-11-22T05:55:03.710Z,94.05
2022-11-22T05:57:32.666Z,93.76
2022-11-22T05:59:59.931Z,94.27
2022-11-22T06:02:30.938Z,93.86
2022-11-22T06:04:58.208Z,93.92
2022-11-22T06:07:25.537Z,93.89
2022-11-22T06:09:52.966Z,94.37
2022-11-22T06:12:20.298Z,94.35
2022-11-22T06:14:47.663Z,93.48
2022-11-22T06:17:14.902Z,93.70
2022-11-22T06:19:43.662Z,93.94
2022-11-22T06:22:11.037Z,94.49
2022-11-22T06:24:38.239Z,93.86
2022-11-22T06:27:05.504Z,94.79
2022-11-22T06:29:33.225Z,94.54
2022-11-22T06:32:03.724Z,93.72
2022-11-22T06:34:31.374Z,94.54
2022-11-22T06:37:00.116Z,94.34
2022-11-22T06:39:27.701Z,94.37
2022-11-22T06:41:55.185Z,94.61
2022-11-22T06:44:22.643Z,93.75
2022-11-22T06:46:50.425Z,94.65
2022-11-22T06:49:17.782Z,94.24
2022-11-22T06:51:45.158Z,94.33
2022-11-22T06:54:14.086Z,94.40
2022-11-22T06:56:41.788Z,94.55
2022-11-22T06:59:09.316Z,93.87
2022-11-22T07:01:37.830Z,94.85
2022-11-22T07:04:06.262Z,94.41
2022-11-22T07:06:35.357Z,94.83
2022-11-22T07:09:04.443Z,94.39
2022-11-22T07:11:33.687Z,94.87
2022-11-22T07:14:07.766Z,94.34
2022-11-22T07:16:37.422Z,94.24
2022-11-22T07:19:05.176Z,94.30
2022-11-22T07:21:32.712Z,94.53
2022-11-22T07:24:00.100Z,94.53
2022-11-22T07:26:28.730Z,94.41
2022-11-22T07:28:57.722Z,94.64
2022-11-22T07:31:26.397Z,94.66
2022-11-22T07:33:56.547Z,94.74
2022-11-22T07:36:24.070Z,94.79
2022-11-22T07:38:51.480Z,95.30
2022-11-22T07:41:19.800Z,95.24
2022-11-22T07:43:47.446Z,95.33
2022-11-22T07:46:22.447Z,94.91
2022-11-22T07:48:49.983Z,94.56
2022-11-22T07:51:17.744Z,95.13
2022-11-22T07:53:45.020Z,95.06
2022-11-22T07:56:12.740Z,95.39
2022-11-22T07:58:40.338Z,95.49
2022-11-22T08:01:09.352Z,95.20
2022-11-22T08:03:38.487Z,94.69
2022-11-22T08:06:08.207Z,95.39
2022-11-22T08:08:36.421Z,95.43
2022-11-22T08:11:05.133Z,95.30
2022-11-22T08:13:32.998Z,95.13
2022-11-22T08:16:05.522Z,95.46
2022-11-22T08:18:33.190Z,94.96
2022-11-22T08:21:10.064Z,95.99
2022-11-22T08:23:37.800Z,95.76
2022-11-22T08:26:06.266Z,95.05
2022-11-22T08:28:33.736Z,95.32
2022-11-22T08:31:02.641Z,95.18
2022-11-22T08:33:29.900Z,95.34
2022-11-22T08:35:57.231Z,95.99
2022-11-22T08:38:27.588Z,96.14
2022-11-22T08:40:55.342Z,95.85
2022-11-22T08:43:22.641Z,96.41
2022-11-22T08:45:55.132Z,96.03
2022-11-22T08:48:22.833Z,95.68
2022-11-22T08:50:51.807Z,96.21
2022-11-22T08:53:19.243Z,95.89
2022-11-22T08:55:48.143Z,96.23
2022-11-22T08:58:15.573Z,96.35
2022-11-22T09:00:43.108Z,96.49
2022-11-22T09:03:10.691Z,96.26
2022-11-22T09:08:25.357Z,95.87
2022-11-22T09:10:54.123Z,96.69
2022-11-22T09:13:21.478Z,96.09
2022-11-22T09:15:49.007Z,96.47
2022-11-22T09:18:16.255Z,96.23
2022-11-22T09:20:43.492Z,96.59
2022-11-22T09:23:11.077Z,96.32
2022-11-22T09:25:38.439Z,96.12
2022-11-22T09:28:07.088Z,96.31
2022-11-22T09:30:34.407Z,96.99
2022-11-22T09:33:01.609Z,96.94
2022-11-22T09:35:28.870Z,96.49
2022-11-22T09:37:56.339Z,96.18
2022-11-22T09:40:23.775Z,96.91
2022-11-22T09:43:07.197Z,96.30
2022-11-22T09:45:56.136Z,96.89
2022-11-22T09:48:59.387Z,96.62
2022-11-22T09:51:29.630Z,96.97
2022-11-22T09:54:05.282Z,96.10
2022-11-22T09:56:33.724Z,96.12
2022-11-22T09:59:05.900Z,96.93
2022-11-22T10:01:41.270Z,96.55
2022-11-22T10:04:12.911Z,96.23
2022-11-22T10:06:43.030Z,96.48
2022-11-22T10:09:26.109Z,96.56
2022-11-22T10:11:58.227Z,96.28
2022-11-22T10:14:41.192Z,96.58
2022-11-22T10:17:25.883Z,96.86
2022-11-22T10:20:02.088Z,96.23
2022-11-22T10:22:31.056Z,97.07
2022-11-22T10:25:00.912Z,96.28
2022-11-22T10:27:32.662Z,96.29
2022-11-22T10:30:04.489Z,97.17
2022-11-22T10:32:41.037Z,96.68
2022-11-22T10:35:30.881Z,96.94
2022-11-22T10:38:09.589Z,96.53
2022-11-22T10:40:44.205Z,96.80
2022-11-22T10:43:24.387Z,96.26
2022-11-22T10:46:01.086Z,96.39
2022-11-22T10:48:39.116Z,97.02
2022-11-22T10:51:17.841Z,96.60
2022-11-22T10:54:03.143Z,96.74
2022-11-22T10:56:41.282Z,97.26
2022-11-22T10:59:29.170Z,97.17
2022-11-22T11:02:10.326Z,96.48
2022-11-22T11:04:41.963Z,97.32
2022-11-22T11:07:14.905Z,97.00
2022-11-22T11:10:10.232Z,96.93
2022-11-22T11:12:42.110Z,97.01
2022-11-22T11:15:18.380Z,96.62
2022-11-22T11:17:51.171Z,96.68
2022-11-22T11:20:25.663Z,96.73
2022-11-22T11:23:13.830Z,97.70
2022-11-22T11:25:42.813Z,97.41
2022-11-22T11:28:17.523Z,97.22
2022-11-22T11:30:48.347Z,97.11
2022-11-22T11:33:24.040Z,97.21
2022-11-22T11:35:55.428Z,97.26
2022-11-22T11:38:34.019Z,97.44
2022-11-22T11:41:32.576Z,97.62
2022-11-22T11:44:01.852Z,97.42
2022-11-22T11:46:30.298Z,97.71
2022-11-22T11:49:09.832Z,97.31
2022-11-22T11:51:42.934Z,97.15
2022-11-22T11:54:13.482Z,97.71
2022-11-22T11:56:47.279Z,97.67
2022-11-22T11:59:17.571Z,97.28
2022-11-22T12:01:58.469Z,97.12
2022-11-22T12:04:29.801Z,97.55
2022-11-22T12:07:05.684Z,97.45
2022-11-22T12:09:36.276Z,97.48
2022-11-22T12:12:12.845Z,98.03
2022-11-22T12:15:09.730Z,97.31
2022-11-22T12:17:37.111Z,97.41
2022-11-22T12:20:07.076Z,98.01
2022-11-22T12:22:50.866Z,97.91
2022-11-22T12:25:32.626Z,97.97
2022-11-22T12:28:10.659Z,97.99
2022-11-22T12:30:41.467Z,97.56
2022-11-22T12:33:18.097Z,97.40
2022-11-22T12:35:47.132Z,98.40
2022-11-22T12:38:20.875Z,98.15
2022-11-22T12:40:52.391Z,98.16
2022-11-22T12:43:23.567Z,97.51
2022-11-22T12:45:54.402Z,97.63
2022-11-22T12:48:29.205Z,98.04
2022-11-22T12:51:00.789Z,98.16
2022-11-22T12:53:32.394Z,98.26
2022-11-22T12:56:09.238Z,97.60
2022-11-22T12:58:41.779Z,98.16
2022-11-22T13:01:15.773Z,98.13
2022-11-22T13:03:49.236Z,98.13
2022-11-22T13:06:23.489Z,97.68
2022-11-22T13:09:03.443Z,97.65
2022-11-22T13:11:34.476Z,98.05
2022-11-22T13:14:06.694Z,97.65
2022-11-22T13:16:34.859Z,97.53
2022-11-22T13:19:05.348Z,97.84
2022-11-22T13:21:45.715Z,98.30
2022-11-22T13:24:36.055Z,97.63
2022-11-22T13:27:13.975Z,98.52
2022-11-22T13:29:43.643Z,98.38
2022-11-22T13:32:20.614Z,97.78
2022-11-22T13:35:04.648Z,97.95
2022-11-22T13:37:36.735Z,97.59
2022-11-22T13:40:26.047Z,98.25
2022-11-22T13:43:30.239Z,97.84
2022-11-22T13:45:59.534Z,98.52
2022-11-22T13:49:03.941Z,97.99
2022-11-22T13:51:52.617Z,98.28
2022-11-22T13:55:01.679Z,97.78
2022-11-22T13:57:35.088Z,98.14
2022-11-22T14:00:44.710Z,98.44
2022-11-22T14:03:40.768Z,98.03
2022-11-22T14:06:26.056Z,97.70
2022-11-22T14:09:14.983Z,98.06
2022-11-22T14:11:50.806Z,97.82
2022-11-22T14:14:24.122Z,98.74
2022-11-22T14:17:05.139Z,98.17
2022-11-22T14:19:55.492Z,98.55
2022-11-22T14:22:32.405Z,98.57
2022-11-22T14:25:21.222Z,97.97
2022-11-22T14:27:55.043Z,98.49
2022-11-22T14:30:39.234Z,98.57
2022-11-22T14:33:15.579Z,98.11
2022-11-22T14:36:16.235Z,98.15
2022-11-22T14:38:44.131Z,98.18
2022-11-22T14:41:52.577Z,98.64
2022-11-22T14:44:22.969Z,98.37
2022-11-22T14:46:56.833Z,98.87
2022-11-22T14:49:37.318Z,98.22
2022-11-22T14:52:12.588Z,98.49
2022-11-22T14:54:48.073Z,98.28
2022-11-22T14:57:19.123Z,98.34
2022-11-22T15:00:07.267Z,98.63
2022-11-22T15:03:21.484Z,98.29
2022-11-22T15:09:12.136Z,98.40
2022-11-22T15:09:13.540Z,98.57
2022-11-22T15:12:09.075Z,98.30
2022-11-22T15:57:34.857Z,99.03
2022-11-22T16:00:02.681Z,98.79
2022-11-22T16:02:39.878Z,98.50
2022-11-22T16:06:08.217Z,98.57
2022-11-22T16:08:00.761Z,98.80
2022-11-22T16:10:37.297Z,98.54
2022-11-22T16:13:24.433Z,98.76
2022-11-22T16:16:05.511Z,98.92
2022-11-22T16:18:33.111Z,98.28
2022-11-22T16:21:01.668Z,98.72
2022-11-22T16:23:33.352Z,99.10
2022-11-22T16:26:18.819Z,99.35
2022-11-22T16:28:46.630Z,99.23
2022-11-22T16:31:19.927Z,99.08
2022-11-22T16:33:47.282Z,98.44
2022-11-22T16:36:16.248Z,99.03
2022-11-22T16:38:45.662Z,98.48
2022-11-22T16:41:18.525Z,98.88
2022-11-22T16:43:45.673Z,98.30
2022-11-22T16:46:13.805Z,98.51
2022-11-22T16:48:42.063Z,98.96
2022-11-22T16:51:16.970Z,98.87
2022-11-22T16:53:47.784Z,98.87
2022-11-22T16:56:20.223Z,98.59
2022-11-22T16:58:49.616Z,98.69
2022-11-22T17:01:21.737Z,98.64
2022-11-22T17:03:51.112Z,98.49
2022-11-22T17:06:20.114Z,98.56
2022-11-22T17:08:50.366Z,98.74
2022-11-22T17:11:20.400Z,98.75
2022-11-22T17:13:48.411Z,98.21
2022-11-22T17:16:17.985Z,98.60
2022-11-22T17:18:46.486Z,98.41
2022-11-22T17:21:16.940Z,98.08
2022-11-22T17:23:45.029Z,98.10
2022-11-22T17:26:14.041Z,98.87
2022-11-22T17:28:41.341Z,98.71
2022-11-22T17:31:12.218Z,98.39
2022-11-22T17:33:39.747Z,98.88
2022-11-22T17:36:18.526Z,98.66
2022-11-22T17:38:45.756Z,98.23
2022-11-22T17:41:14.462Z,98.75
2022-11-22T17:43:41.738Z,98.79
2022-11-22T17:46:09.132Z,98.27
2022-11-22T17:48:36.455Z,99.06
2022-11-22T17:51:06.449Z,98.81
2022-11-22T17:53:33.927Z,99.06
2022-11-22T17:56:10.360Z,99.06
2022-11-22T17:58:39.970Z,98.29
2022-11-22T18:01:09.446Z,99.03
2022-11-22T18:03:36.989Z,98.96
2022-11-22T18:06:04.761Z,98.97
2022-11-22T18:08:32.929Z,98.64
2022-11-22T18:11:00.999Z,98.51
2022-11-22T18:13:29.804Z,98.84
2022-11-22T18:16:03.530Z,99.03
2022-11-22T18:21:19.431Z,98.69
2022-11-22T18:23:47.120Z,98.38
2022-11-22T18:26:38.384Z,98.56
2022-11-22T18:29:35.583Z,98.61
2022-11-22T18:31:52.882Z,98.79
2022-11-22T18:34:20.887Z,98.64
2022-11-22T18:37:00.303Z,98.48
2022-11-22T18:39:31.880Z,98.78
2022-11-22T18:41:59.544Z,98.91
2022-11-22T18:44:26.953Z,98.85
2022-11-22T18:47:01.036Z,98.96
2022-11-22T18:49:28.445Z,99.08
2022-11-22T18:51:56.042Z,98.96
2022-11-22T18:54:23.568Z,98.52
2022-11-22T18:56:51.357Z,98.87
2022-11-22T18:59:19.223Z,98.78
2022-11-22T19:01:46.521Z,99.15
2022-11-22T19:04:15.806Z,99.18
2022-11-22T19:06:43.759Z,98.63
2022-11-22T19:09:11.471Z,99.16
2022-11-22T19:11:39.508Z,98.78
2022-11-22T19:14:07.265Z,99.29
2022-11-22T19:16:34.887Z,99.10
2022-11-22T19:19:02.409Z,98.65
2022-11-22T19:21:31.251Z,99.21
2022-11-22T19:23:58.544Z,99.03
2022-11-22T19:26:28.282Z,98.76
2022-11-22T19:28:56.690Z,98.99
2022-11-22T19:31:25.410Z,99.22
2022-11-22T19:33:52.890Z,99.10
2022-11-22T19:36:26.368Z,99.33
2022-11-22T19:38:59.945Z,99.04
2022-11-22T19:41:27.435Z,99.02
2022-11-22T19:43:56.091Z,98.70
2022-11-22T19:46:23.862Z,99.31
2022-11-22T19:48:52.045Z,99.20
2022-11-22T19:51:19.437Z,98.86
2022-11-22T19:53:46.721Z,99.16
2022-11-22T19:56:17.020Z,99.37
2022-11-22T19:58:48.993Z,99.12
2022-11-22T20:01:16.822Z,98.84
2022-11-22T20:03:45.048Z,98.71
2022-11-22T20:06:14.093Z,98.71
2022-11-22T20:08:41.782Z,99.26
2022-11-22T20:11:11.581Z,98.90
2022-11-22T20:13:42.931Z,99.26
2022-11-22T20:16:12.502Z,98.56
2022-11-22T20:18:40.058Z,98.67
2022-11-22T20:21:09.342Z,98.74
2022-11-22T20:23:38.430Z,98.76
2022-11-22T20:26:09.809Z,99.30
2022-11-22T20:28:37.138Z,99.19
2022-11-22T20:31:07.464Z,98.62
2022-11-22T20:33:35.820Z,99.19
2022-11-22T20:36:04.474Z,99.21
2022-11-22T20:38:35.135Z,98.56
2022-11-22T20:41:02.849Z,99.04
2022-11-22T20:43:31.311Z,98.89
2022-11-22T20:46:02.281Z,98.81
2022-11-22T20:48:31.849Z,98.82
2022-11-22T20:51:00.082Z,98.71
2022-11-22T20:53:33.668Z,98.74
2022-11-22T20:56:01.087Z,98.69
2022-11-22T20:58:28.731Z,99.14
2022-11-22T21:00:57.091Z,99.11
2022-11-22T21:03:25.166Z,98.62
2022-11-22T21:05:55.374Z,99.08
2022-11-22T21:08:23.819Z,98.98
2022-11-22T21:10:51.034Z,99.14
2022-11-22T21:13:18.254Z,99.34
2022-11-22T21:15:45.536Z,99.11
2022-11-22T21:18:28.135Z,98.53
2022-11-22T21:21:01.928Z,98.65
2022-11-22T21:23:29.204Z,98.88
2022-11-22T21:25:56.453Z,99.34
2022-11-22T21:28:24.331Z,98.48
2022-11-22T21:30:55.100Z,98.88
2022-11-22T21:33:22.882Z,99.02
2022-11-22T21:35:51.949Z,99.17
2022-11-22T21:38:26.873Z,99.12
2022-11-22T21:41:17.184Z,99.00
2022-11-22T21:43:50.346Z,98.90
2022-11-22T21:46:20.451Z,98.96
2022-11-22T21:48:50.317Z,98.79
2022-11-22T21:51:17.876Z,98.98
2022-11-22T21:53:46.752Z,99.31
2022-11-22T21:56:14.002Z,98.76
2022-11-22T21:58:42.541Z,98.66
2022-11-22T22:01:14.084Z,98.47
2022-11-22T22:03:42.345Z,98.66
2022-11-22T22:06:09.684Z,98.95
2022-11-22T22:08:37.313Z,98.68
2022-11-22T22:11:06.607Z,98.58
2022-11-22T22:13:33.952Z,98.69
2022-11-22T22:16:12.981Z,99.03
2022-11-22T22:18:40.208Z,98.91
2022-11-22T22:21:09.501Z,98.47
2022-11-22T22:23:38.281Z,98.61
2022-11-22T22:26:08.607Z,98.53
2022-11-22T22:28:37.436Z,99.11
2022-11-22T22:31:07.133Z,99.04
2022-11-22T22:33:34.824Z,99.26
2022-11-22T22:36:02.652Z,99.08
2022-11-22T22:38:31.018Z,99.33
2022-11-22T22:40:59.852Z,98.80
2022-11-22T22:43:31.472Z,98.92
2022-11-22T22:46:06.209Z,99.06
2022-11-22T22:48:34.850Z,99.23
2022-11-22T22:51:06.507Z,98.78
2022-11-22T22:53:34.131Z,98.85
2022-11-22T22:56:01.876Z,98.81
2022-11-22T22:58:30.692Z,98.53
2022-11-22T23:01:04.561Z,98.58
2022-11-22T23:03:32.485Z,98.89
2022-11-22T23:05:59.890Z,99.19
2022-11-22T23:08:27.221Z,98.48
2022-11-22T23:10:54.422Z,99.12
2022-11-22T23:13:21.676Z,99.09
2022-11-22T23:15:58.177Z,98.54
2022-11-22T23:18:26.138Z,99.08
2022-11-22T23:20:57.753Z,99.22
2022-11-22T23:23:25.013Z,98.52
2022-11-22T23:25:52.185Z,98.75
2022-11-22T23:28:19.549Z,98.74
2022-11-22T23:30:46.828Z,98.89
2022-11-22T23:33:15.603Z,99.20
2022-11-22T23:35:42.936Z,99.14
2022-11-22T23:38:10.191Z,99.38
2022-11-22T23:40:37.446Z,99.28
2022-11-22T23:43:04.774Z,98.70
2022-11-22T23:45:31.969Z,99.00
2022-11-22T23:47:59.216Z,99.07
2022-11-22T23:50:27.992Z,98.93
2022-11-22T23:52:56.817Z,98.86
2022-11-22T23:55:24.607Z,99.10
2022-11-22T23:57:52.006Z,99.48
